sensor_id;sensor_type;location;lat;lon;timestamp;P1;durP1;ratioP1;P2;durP2;ratioP2
53411;SDS011;39307;52.870;13.660;2022-12-20T00:00:47;54.47;;;28.30;;
53411;SDS011;39307;52.870;13.660;2022-12-20T00:03:14;120.35;;;63.58;;
53411;SDS011;39307;52.870;13.660;2022-12-20T00:05:40;70.00;;;38.65;;
53411;SDS011;39307;52.870;13.660;2022-12-20T00:08:07;38.70;;;21.92;;
53411;SDS011;39307;52.870;13.660;2022-12-20T00:10:37;38.90;;;21.50;;
53411;SDS011;39307;52.870;13.660;2022-12-20T00:13:04;33.13;;;19.38;;
53411;SDS011;39307;52.870;13.660;2022-12-20T00:15:30;37.03;;;21.65;;
53411;SDS011;39307;52.870;13.660;2022-12-20T00:17:57;51.38;;;31.40;;
53411;SDS011;39307;52.870;13.660;2022-12-20T00:20:24;37.25;;;22.65;;
53411;SDS011;39307;52.870;13.660;2022-12-20T00:22:51;36.22;;;20.10;;
53411;SDS011;39307;52.870;13.660;2022-12-20T00:25:17;32.30;;;18.60;;
53411;SDS011;39307;52.870;13.660;2022-12-20T00:27:44;35.28;;;19.33;;
53411;SDS011;39307;52.870;13.660;2022-12-20T00:30:10;31.33;;;18.48;;
53411;SDS011;39307;52.870;13.660;2022-12-20T00:32:37;30.40;;;18.67;;
53411;SDS011;39307;52.870;13.660;2022-12-20T00:35:03;33.65;;;18.73;;
53411;SDS011;39307;52.870;13.660;2022-12-20T00:37:29;34.00;;;18.98;;
53411;SDS011;39307;52.870;13.660;2022-12-20T00:39:56;35.07;;;18.80;;
53411;SDS011;39307;52.870;13.660;2022-12-20T00:42:22;31.73;;;19.13;;
53411;SDS011;39307;52.870;13.660;2022-12-20T00:44:48;33.70;;;18.95;;
53411;SDS011;39307;52.870;13.660;2022-12-20T00:47:14;31.85;;;18.48;;
53411;SDS011;39307;52.870;13.660;2022-12-20T00:49:41;34.55;;;19.00;;
53411;SDS011;39307;52.870;13.660;2022-12-20T00:52:07;30.95;;;17.83;;
53411;SDS011;39307;52.870;13.660;2022-12-20T00:54:33;32.83;;;18.35;;
53411;SDS011;39307;52.870;13.660;2022-12-20T00:56:59;33.35;;;18.80;;
53411;SDS011;39307;52.870;13.660;2022-12-20T00:59:25;31.38;;;17.95;;
53411;SDS011;39307;52.870;13.660;2022-12-20T01:01:52;31.40;;;17.63;;
53411;SDS011;39307;52.870;13.660;2022-12-20T01:04:18;30.15;;;17.65;;
53411;SDS011;39307;52.870;13.660;2022-12-20T01:06:44;28.58;;;17.42;;
53411;SDS011;39307;52.870;13.660;2022-12-20T01:09:11;31.60;;;17.53;;
53411;SDS011;39307;52.870;13.660;2022-12-20T01:11:37;31.58;;;16.98;;
53411;SDS011;39307;52.870;13.660;2022-12-20T01:14:09;31.52;;;18.58;;
53411;SDS011;39307;52.870;13.660;2022-12-20T01:16:39;32.67;;;18.45;;
53411;SDS011;39307;52.870;13.660;2022-12-20T01:19:07;29.75;;;18.00;;
53411;SDS011;39307;52.870;13.660;2022-12-20T01:21:35;29.13;;;17.25;;
53411;SDS011;39307;52.870;13.660;2022-12-20T01:24:01;31.87;;;17.77;;
53411;SDS011;39307;52.870;13.660;2022-12-20T01:26:28;30.92;;;17.98;;
53411;SDS011;39307;52.870;13.660;2022-12-20T01:28:55;29.65;;;17.63;;
53411;SDS011;39307;52.870;13.660;2022-12-20T01:31:23;31.48;;;17.90;;
53411;SDS011;39307;52.870;13.660;2022-12-20T01:33:49;31.98;;;18.40;;
53411;SDS011;39307;52.870;13.660;2022-12-20T01:36:17;28.40;;;17.20;;
53411;SDS011;39307;52.870;13.660;2022-12-20T01:38:45;31.90;;;18.55;;
53411;SDS011;39307;52.870;13.660;2022-12-20T01:41:18;32.38;;;18.33;;
53411;SDS011;39307;52.870;13.660;2022-12-20T01:43:47;32.35;;;18.33;;
53411;SDS011;39307;52.870;13.660;2022-12-20T01:46:14;29.20;;;17.88;;
53411;SDS011;39307;52.870;13.660;2022-12-20T01:48:41;30.17;;;17.48;;
53411;SDS011;39307;52.870;13.660;2022-12-20T01:51:10;31.90;;;17.73;;
53411;SDS011;39307;52.870;13.660;2022-12-20T01:53:36;30.17;;;17.80;;
53411;SDS011;39307;52.870;13.660;2022-12-20T01:56:03;29.15;;;16.88;;
53411;SDS011;39307;52.870;13.660;2022-12-20T01:58:31;29.10;;;16.95;;
53411;SDS011;39307;52.870;13.660;2022-12-20T02:00:57;33.83;;;17.92;;
53411;SDS011;39307;52.870;13.660;2022-12-20T02:03:24;31.55;;;17.73;;
53411;SDS011;39307;52.870;13.660;2022-12-20T02:05:50;27.77;;;17.50;;
53411;SDS011;39307;52.870;13.660;2022-12-20T02:08:17;29.25;;;17.58;;
53411;SDS011;39307;52.870;13.660;2022-12-20T02:16:31;29.45;;;17.73;;
53411;SDS011;39307;52.870;13.660;2022-12-20T02:22:13;28.73;;;17.42;;
53411;SDS011;39307;52.870;13.660;2022-12-20T02:27:47;30.20;;;17.70;;
53411;SDS011;39307;52.870;13.660;2022-12-20T02:30:20;27.52;;;17.13;;
53411;SDS011;39307;52.870;13.660;2022-12-20T02:35:22;28.70;;;17.52;;
53411;SDS011;39307;52.870;13.660;2022-12-20T02:37:53;28.23;;;17.30;;
53411;SDS011;39307;52.870;13.660;2022-12-20T02:40:23;27.63;;;17.10;;
53411;SDS011;39307;52.870;13.660;2022-12-20T02:43:08;29.55;;;17.00;;
53411;SDS011;39307;52.870;13.660;2022-12-20T02:45:36;27.48;;;16.52;;
53411;SDS011;39307;52.870;13.660;2022-12-20T02:48:09;28.45;;;16.35;;
53411;SDS011;39307;52.870;13.660;2022-12-20T02:50:37;28.52;;;17.30;;
53411;SDS011;39307;52.870;13.660;2022-12-20T02:53:11;28.10;;;17.55;;
53411;SDS011;39307;52.870;13.660;2022-12-20T02:58:22;28.97;;;16.60;;
53411;SDS011;39307;52.870;13.660;2022-12-20T03:01:10;27.10;;;16.60;;
53411;SDS011;39307;52.870;13.660;2022-12-20T03:03:45;27.95;;;16.75;;
53411;SDS011;39307;52.870;13.660;2022-12-20T03:06:12;27.73;;;17.35;;
53411;SDS011;39307;52.870;13.660;2022-12-20T03:08:38;29.77;;;17.38;;
53411;SDS011;39307;52.870;13.660;2022-12-20T03:11:05;29.17;;;16.98;;
53411;SDS011;39307;52.870;13.660;2022-12-20T03:13:31;30.20;;;17.52;;
53411;SDS011;39307;52.870;13.660;2022-12-20T03:15:57;28.20;;;17.00;;
53411;SDS011;39307;52.870;13.660;2022-12-20T03:18:23;29.50;;;16.88;;
53411;SDS011;39307;52.870;13.660;2022-12-20T03:20:50;28.05;;;16.65;;
53411;SDS011;39307;52.870;13.660;2022-12-20T03:23:16;26.70;;;16.15;;
53411;SDS011;39307;52.870;13.660;2022-12-20T03:25:42;26.47;;;16.33;;
53411;SDS011;39307;52.870;13.660;2022-12-20T03:28:08;24.98;;;16.38;;
53411;SDS011;39307;52.870;13.660;2022-12-20T03:30:34;28.80;;;17.08;;
53411;SDS011;39307;52.870;13.660;2022-12-20T03:33:01;27.60;;;16.73;;
53411;SDS011;39307;52.870;13.660;2022-12-20T03:35:27;26.17;;;16.15;;
53411;SDS011;39307;52.870;13.660;2022-12-20T03:37:53;28.63;;;16.13;;
53411;SDS011;39307;52.870;13.660;2022-12-20T03:40:20;28.13;;;16.30;;
53411;SDS011;39307;52.870;13.660;2022-12-20T03:42:46;27.52;;;16.00;;
53411;SDS011;39307;52.870;13.660;2022-12-20T03:45:13;27.80;;;15.32;;
53411;SDS011;39307;52.870;13.660;2022-12-20T03:47:39;28.13;;;16.63;;
53411;SDS011;39307;52.870;13.660;2022-12-20T03:50:05;26.83;;;16.58;;
53411;SDS011;39307;52.870;13.660;2022-12-20T03:52:32;31.83;;;17.90;;
53411;SDS011;39307;52.870;13.660;2022-12-20T03:54:58;29.00;;;17.60;;
53411;SDS011;39307;52.870;13.660;2022-12-20T03:57:25;29.48;;;17.30;;
53411;SDS011;39307;52.870;13.660;2022-12-20T03:59:51;26.63;;;16.08;;
53411;SDS011;39307;52.870;13.660;2022-12-20T04:02:17;26.50;;;15.95;;
53411;SDS011;39307;52.870;13.660;2022-12-20T04:04:44;26.93;;;16.07;;
53411;SDS011;39307;52.870;13.660;2022-12-20T04:07:10;27.58;;;15.93;;
53411;SDS011;39307;52.870;13.660;2022-12-20T04:09:37;28.08;;;16.52;;
53411;SDS011;39307;52.870;13.660;2022-12-20T04:12:04;28.55;;;16.08;;
53411;SDS011;39307;52.870;13.660;2022-12-20T04:14:30;27.85;;;16.27;;
53411;SDS011;39307;52.870;13.660;2022-12-20T04:16:56;26.07;;;15.50;;
53411;SDS011;39307;52.870;13.660;2022-12-20T04:19:22;25.83;;;16.02;;
53411;SDS011;39307;52.870;13.660;2022-12-20T04:21:49;29.58;;;17.33;;
53411;SDS011;39307;52.870;13.660;2022-12-20T04:24:15;27.90;;;16.50;;
53411;SDS011;39307;52.870;13.660;2022-12-20T04:26:41;25.37;;;16.10;;
53411;SDS011;39307;52.870;13.660;2022-12-20T04:29:08;27.67;;;16.77;;
53411;SDS011;39307;52.870;13.660;2022-12-20T04:31:34;27.42;;;16.92;;
53411;SDS011;39307;52.870;13.660;2022-12-20T04:34:00;27.35;;;16.30;;
53411;SDS011;39307;52.870;13.660;2022-12-20T04:36:26;27.20;;;16.10;;
53411;SDS011;39307;52.870;13.660;2022-12-20T04:38:52;28.55;;;16.77;;
53411;SDS011;39307;52.870;13.660;2022-12-20T04:41:19;27.67;;;15.68;;
53411;SDS011;39307;52.870;13.660;2022-12-20T04:43:45;25.52;;;15.55;;
53411;SDS011;39307;52.870;13.660;2022-12-20T04:46:11;25.52;;;15.82;;
53411;SDS011;39307;52.870;13.660;2022-12-20T04:48:37;23.77;;;15.40;;
53411;SDS011;39307;52.870;13.660;2022-12-20T04:51:04;24.65;;;15.23;;
53411;SDS011;39307;52.870;13.660;2022-12-20T04:53:30;25.27;;;15.13;;
53411;SDS011;39307;52.870;13.660;2022-12-20T04:55:56;26.67;;;15.60;;
53411;SDS011;39307;52.870;13.660;2022-12-20T04:58:22;26.83;;;16.55;;
53411;SDS011;39307;52.870;13.660;2022-12-20T05:00:49;27.35;;;16.15;;
53411;SDS011;39307;52.870;13.660;2022-12-20T05:03:15;25.00;;;15.20;;
53411;SDS011;39307;52.870;13.660;2022-12-20T05:05:41;24.95;;;15.48;;
53411;SDS011;39307;52.870;13.660;2022-12-20T05:08:08;26.08;;;15.70;;
53411;SDS011;39307;52.870;13.660;2022-12-20T05:10:34;27.35;;;15.98;;
53411;SDS011;39307;52.870;13.660;2022-12-20T05:13:00;26.10;;;15.77;;
53411;SDS011;39307;52.870;13.660;2022-12-20T05:15:26;25.58;;;15.50;;
53411;SDS011;39307;52.870;13.660;2022-12-20T05:17:52;26.43;;;15.73;;
53411;SDS011;39307;52.870;13.660;2022-12-20T05:20:19;28.42;;;17.88;;
53411;SDS011;39307;52.870;13.660;2022-12-20T05:22:45;27.35;;;15.23;;
53411;SDS011;39307;52.870;13.660;2022-12-20T05:25:11;27.25;;;16.33;;
53411;SDS011;39307;52.870;13.660;2022-12-20T05:27:38;28.92;;;16.77;;
53411;SDS011;39307;52.870;13.660;2022-12-20T05:30:04;27.50;;;16.55;;
53411;SDS011;39307;52.870;13.660;2022-12-20T05:32:31;28.90;;;18.20;;
53411;SDS011;39307;52.870;13.660;2022-12-20T05:34:57;28.70;;;17.20;;
53411;SDS011;39307;52.870;13.660;2022-12-20T05:37:23;29.50;;;17.42;;
53411;SDS011;39307;52.870;13.660;2022-12-20T05:39:49;25.98;;;16.35;;
53411;SDS011;39307;52.870;13.660;2022-12-20T05:42:15;28.37;;;17.17;;
53411;SDS011;39307;52.870;13.660;2022-12-20T05:44:42;27.10;;;16.17;;
53411;SDS011;39307;52.870;13.660;2022-12-20T05:47:08;26.52;;;17.38;;
53411;SDS011;39307;52.870;13.660;2022-12-20T05:49:35;27.38;;;16.15;;
53411;SDS011;39307;52.870;13.660;2022-12-20T05:52:02;25.93;;;16.07;;
53411;SDS011;39307;52.870;13.660;2022-12-20T05:54:28;25.77;;;16.05;;
53411;SDS011;39307;52.870;13.660;2022-12-20T05:56:54;27.27;;;16.00;;
53411;SDS011;39307;52.870;13.660;2022-12-20T05:59:20;26.27;;;15.80;;
53411;SDS011;39307;52.870;13.660;2022-12-20T06:01:46;23.92;;;15.25;;
53411;SDS011;39307;52.870;13.660;2022-12-20T06:04:13;27.17;;;15.70;;
53411;SDS011;39307;52.870;13.660;2022-12-20T06:06:39;26.13;;;15.75;;
53411;SDS011;39307;52.870;13.660;2022-12-20T06:09:06;26.88;;;16.40;;
53411;SDS011;39307;52.870;13.660;2022-12-20T06:11:32;27.05;;;16.40;;
53411;SDS011;39307;52.870;13.660;2022-12-20T06:13:58;28.40;;;16.88;;
53411;SDS011;39307;52.870;13.660;2022-12-20T06:16:24;26.70;;;16.52;;
53411;SDS011;39307;52.870;13.660;2022-12-20T06:18:51;26.23;;;15.38;;
53411;SDS011;39307;52.870;13.660;2022-12-20T06:21:17;26.48;;;15.75;;
53411;SDS011;39307;52.870;13.660;2022-12-20T06:23:43;27.60;;;16.97;;
53411;SDS011;39307;52.870;13.660;2022-12-20T06:26:09;27.38;;;15.90;;
53411;SDS011;39307;52.870;13.660;2022-12-20T06:28:35;25.10;;;15.73;;
53411;SDS011;39307;52.870;13.660;2022-12-20T06:31:02;26.58;;;15.35;;
53411;SDS011;39307;52.870;13.660;2022-12-20T06:33:28;27.20;;;16.40;;
53411;SDS011;39307;52.870;13.660;2022-12-20T06:35:54;27.00;;;15.30;;
53411;SDS011;39307;52.870;13.660;2022-12-20T06:38:20;24.52;;;15.20;;
53411;SDS011;39307;52.870;13.660;2022-12-20T06:40:46;24.63;;;15.23;;
53411;SDS011;39307;52.870;13.660;2022-12-20T06:43:12;28.08;;;16.30;;
53411;SDS011;39307;52.870;13.660;2022-12-20T06:45:39;25.42;;;15.85;;
53411;SDS011;39307;52.870;13.660;2022-12-20T06:48:05;26.40;;;16.27;;
53411;SDS011;39307;52.870;13.660;2022-12-20T06:50:31;26.88;;;16.35;;
53411;SDS011;39307;52.870;13.660;2022-12-20T06:52:57;27.00;;;16.05;;
53411;SDS011;39307;52.870;13.660;2022-12-20T06:55:24;27.88;;;15.85;;
53411;SDS011;39307;52.870;13.660;2022-12-20T06:57:50;26.20;;;16.55;;
53411;SDS011;39307;52.870;13.660;2022-12-20T07:00:16;29.63;;;17.00;;
53411;SDS011;39307;52.870;13.660;2022-12-20T07:02:43;25.27;;;15.97;;
53411;SDS011;39307;52.870;13.660;2022-12-20T07:05:09;26.05;;;15.52;;
53411;SDS011;39307;52.870;13.660;2022-12-20T07:07:35;25.48;;;15.07;;
53411;SDS011;39307;52.870;13.660;2022-12-20T07:10:02;26.03;;;15.57;;
53411;SDS011;39307;52.870;13.660;2022-12-20T07:12:28;26.42;;;15.20;;
53411;SDS011;39307;52.870;13.660;2022-12-20T07:14:55;25.83;;;16.13;;
53411;SDS011;39307;52.870;13.660;2022-12-20T07:17:21;24.23;;;15.93;;
53411;SDS011;39307;52.870;13.660;2022-12-20T07:19:47;25.80;;;15.93;;
53411;SDS011;39307;52.870;13.660;2022-12-20T07:22:13;26.42;;;16.00;;
53411;SDS011;39307;52.870;13.660;2022-12-20T07:24:39;27.23;;;16.42;;
53411;SDS011;39307;52.870;13.660;2022-12-20T07:27:06;26.05;;;16.00;;
53411;SDS011;39307;52.870;13.660;2022-12-20T07:29:32;29.60;;;16.73;;
53411;SDS011;39307;52.870;13.660;2022-12-20T07:31:58;25.65;;;16.45;;
53411;SDS011;39307;52.870;13.660;2022-12-20T07:34:24;27.67;;;16.17;;
53411;SDS011;39307;52.870;13.660;2022-12-20T07:36:51;26.60;;;16.55;;
53411;SDS011;39307;52.870;13.660;2022-12-20T07:39:17;25.60;;;16.00;;
53411;SDS011;39307;52.870;13.660;2022-12-20T07:41:43;26.58;;;16.33;;
53411;SDS011;39307;52.870;13.660;2022-12-20T07:44:09;26.30;;;16.00;;
53411;SDS011;39307;52.870;13.660;2022-12-20T07:46:36;27.48;;;16.67;;
53411;SDS011;39307;52.870;13.660;2022-12-20T07:49:02;26.50;;;16.53;;
53411;SDS011;39307;52.870;13.660;2022-12-20T07:51:29;26.45;;;16.02;;
53411;SDS011;39307;52.870;13.660;2022-12-20T07:54:03;23.73;;;15.82;;
53411;SDS011;39307;52.870;13.660;2022-12-20T07:56:36;24.33;;;15.75;;
53411;SDS011;39307;52.870;13.660;2022-12-20T07:59:06;26.02;;;15.88;;
53411;SDS011;39307;52.870;13.660;2022-12-20T08:01:36;24.88;;;15.70;;
53411;SDS011;39307;52.870;13.660;2022-12-20T08:04:07;27.80;;;16.85;;
53411;SDS011;39307;52.870;13.660;2022-12-20T08:06:39;24.90;;;15.75;;
53411;SDS011;39307;52.870;13.660;2022-12-20T08:09:06;27.98;;;16.35;;
53411;SDS011;39307;52.870;13.660;2022-12-20T08:11:35;26.35;;;16.60;;
53411;SDS011;39307;52.870;13.660;2022-12-20T08:14:03;24.70;;;15.25;;
53411;SDS011;39307;52.870;13.660;2022-12-20T08:16:30;28.58;;;16.48;;
53411;SDS011;39307;52.870;13.660;2022-12-20T08:18:57;29.08;;;16.80;;
53411;SDS011;39307;52.870;13.660;2022-12-20T08:21:23;25.57;;;15.77;;
53411;SDS011;39307;52.870;13.660;2022-12-20T08:23:49;28.08;;;16.67;;
53411;SDS011;39307;52.870;13.660;2022-12-20T08:26:15;28.25;;;16.08;;
53411;SDS011;39307;52.870;13.660;2022-12-20T08:28:41;26.08;;;15.85;;
53411;SDS011;39307;52.870;13.660;2022-12-20T08:31:08;26.60;;;16.40;;
53411;SDS011;39307;52.870;13.660;2022-12-20T08:33:35;28.08;;;16.17;;
53411;SDS011;39307;52.870;13.660;2022-12-20T08:36:03;26.55;;;15.90;;
53411;SDS011;39307;52.870;13.660;2022-12-20T08:38:31;27.33;;;16.30;;
53411;SDS011;39307;52.870;13.660;2022-12-20T08:41:02;25.10;;;16.20;;
53411;SDS011;39307;52.870;13.660;2022-12-20T08:43:30;27.55;;;15.65;;
53411;SDS011;39307;52.870;13.660;2022-12-20T08:45:57;24.53;;;15.63;;
53411;SDS011;39307;52.870;13.660;2022-12-20T08:48:23;25.95;;;16.23;;
53411;SDS011;39307;52.870;13.660;2022-12-20T08:50:56;24.98;;;15.77;;
53411;SDS011;39307;52.870;13.660;2022-12-20T08:53:23;27.55;;;16.42;;
53411;SDS011;39307;52.870;13.660;2022-12-20T08:55:49;25.17;;;15.80;;
53411;SDS011;39307;52.870;13.660;2022-12-20T08:58:16;26.15;;;16.27;;
53411;SDS011;39307;52.870;13.660;2022-12-20T09:00:42;27.80;;;16.07;;
53411;SDS011;39307;52.870;13.660;2022-12-20T09:03:08;24.85;;;15.95;;
53411;SDS011;39307;52.870;13.660;2022-12-20T09:05:34;26.65;;;16.85;;
53411;SDS011;39307;52.870;13.660;2022-12-20T09:08:00;28.23;;;17.48;;
53411;SDS011;39307;52.870;13.660;2022-12-20T09:10:27;26.08;;;16.30;;
53411;SDS011;39307;52.870;13.660;2022-12-20T09:12:53;25.98;;;16.98;;
53411;SDS011;39307;52.870;13.660;2022-12-20T09:15:19;25.15;;;16.70;;
53411;SDS011;39307;52.870;13.660;2022-12-20T09:17:45;27.10;;;16.83;;
53411;SDS011;39307;52.870;13.660;2022-12-20T09:20:11;27.23;;;17.23;;
53411;SDS011;39307;52.870;13.660;2022-12-20T09:22:37;25.70;;;15.70;;
53411;SDS011;39307;52.870;13.660;2022-12-20T09:25:04;27.52;;;16.58;;
53411;SDS011;39307;52.870;13.660;2022-12-20T09:27:30;30.85;;;16.98;;
53411;SDS011;39307;52.870;13.660;2022-12-20T09:29:56;28.63;;;16.70;;
53411;SDS011;39307;52.870;13.660;2022-12-20T09:32:23;28.10;;;17.80;;
53411;SDS011;39307;52.870;13.660;2022-12-20T09:34:49;26.85;;;17.45;;
53411;SDS011;39307;52.870;13.660;2022-12-20T09:37:15;28.25;;;17.05;;
53411;SDS011;39307;52.870;13.660;2022-12-20T09:39:42;27.83;;;17.50;;
53411;SDS011;39307;52.870;13.660;2022-12-20T09:42:08;29.13;;;17.55;;
53411;SDS011;39307;52.870;13.660;2022-12-20T09:44:35;30.47;;;17.57;;
53411;SDS011;39307;52.870;13.660;2022-12-20T09:47:10;29.13;;;17.27;;
53411;SDS011;39307;52.870;13.660;2022-12-20T09:49:45;27.98;;;17.95;;
53411;SDS011;39307;52.870;13.660;2022-12-20T09:57:46;29.02;;;17.83;;
53411;SDS011;39307;52.870;13.660;2022-12-20T10:00:15;28.33;;;17.77;;
53411;SDS011;39307;52.870;13.660;2022-12-20T10:02:44;29.92;;;19.20;;
53411;SDS011;39307;52.870;13.660;2022-12-20T10:05:14;28.85;;;17.25;;
53411;SDS011;39307;52.870;13.660;2022-12-20T10:07:52;30.23;;;17.98;;
53411;SDS011;39307;52.870;13.660;2022-12-20T10:10:35;27.13;;;17.90;;
53411;SDS011;39307;52.870;13.660;2022-12-20T10:13:19;30.52;;;17.73;;
53411;SDS011;39307;52.870;13.660;2022-12-20T10:16:18;28.80;;;16.77;;
53411;SDS011;39307;52.870;13.660;2022-12-20T10:24:29;28.63;;;17.88;;
53411;SDS011;39307;52.870;13.660;2022-12-20T10:27:03;28.63;;;17.67;;
53411;SDS011;39307;52.870;13.660;2022-12-20T10:29:42;26.90;;;17.65;;
53411;SDS011;39307;52.870;13.660;2022-12-20T10:32:19;26.83;;;16.90;;
53411;SDS011;39307;52.870;13.660;2022-12-20T10:37:33;28.15;;;17.40;;
53411;SDS011;39307;52.870;13.660;2022-12-20T10:40:00;25.95;;;17.02;;
53411;SDS011;39307;52.870;13.660;2022-12-20T10:42:33;30.13;;;17.47;;
53411;SDS011;39307;52.870;13.660;2022-12-20T10:45:05;27.85;;;16.83;;
53411;SDS011;39307;52.870;13.660;2022-12-20T10:47:47;28.67;;;16.97;;
53411;SDS011;39307;52.870;13.660;2022-12-20T10:50:20;29.08;;;17.85;;
53411;SDS011;39307;52.870;13.660;2022-12-20T10:53:11;27.40;;;17.17;;
53411;SDS011;39307;52.870;13.660;2022-12-20T10:55:46;26.80;;;15.93;;
53411;SDS011;39307;52.870;13.660;2022-12-20T10:58:29;26.85;;;16.65;;
53411;SDS011;39307;52.870;13.660;2022-12-20T11:01:03;25.55;;;15.50;;
53411;SDS011;39307;52.870;13.660;2022-12-20T11:03:55;25.85;;;15.68;;
53411;SDS011;39307;52.870;13.660;2022-12-20T11:06:25;26.23;;;16.15;;
53411;SDS011;39307;52.870;13.660;2022-12-20T11:09:09;24.02;;;15.50;;
53411;SDS011;39307;52.870;13.660;2022-12-20T11:11:59;23.45;;;14.77;;
53411;SDS011;39307;52.870;13.660;2022-12-20T11:14:32;26.53;;;16.03;;
53411;SDS011;39307;52.870;13.660;2022-12-20T11:17:03;23.48;;;14.45;;
53411;SDS011;39307;52.870;13.660;2022-12-20T11:27:42;25.23;;;14.73;;
53411;SDS011;39307;52.870;13.660;2022-12-20T11:42:21;23.38;;;14.98;;
53411;SDS011;39307;52.870;13.660;2022-12-20T11:47:54;21.98;;;13.35;;
53411;SDS011;39307;52.870;13.660;2022-12-20T11:53:42;23.40;;;13.95;;
53411;SDS011;39307;52.870;13.660;2022-12-20T11:56:22;22.05;;;13.55;;
53411;SDS011;39307;52.870;13.660;2022-12-20T11:59:27;21.75;;;13.55;;
53411;SDS011;39307;52.870;13.660;2022-12-20T12:02:33;24.05;;;13.68;;
53411;SDS011;39307;52.870;13.660;2022-12-20T12:08:24;21.33;;;13.38;;
53411;SDS011;39307;52.870;13.660;2022-12-20T12:11:25;20.50;;;13.32;;
53411;SDS011;39307;52.870;13.660;2022-12-20T12:13:57;21.58;;;13.48;;
53411;SDS011;39307;52.870;13.660;2022-12-20T12:16:27;21.40;;;12.80;;
53411;SDS011;39307;52.870;13.660;2022-12-20T12:19:00;21.33;;;13.35;;
53411;SDS011;39307;52.870;13.660;2022-12-20T12:21:36;22.57;;;13.50;;
53411;SDS011;39307;52.870;13.660;2022-12-20T12:24:18;21.80;;;13.30;;
53411;SDS011;39307;52.870;13.660;2022-12-20T12:26:58;19.45;;;12.25;;
53411;SDS011;39307;52.870;13.660;2022-12-20T12:29:25;22.25;;;13.35;;
53411;SDS011;39307;52.870;13.660;2022-12-20T12:37:54;20.85;;;12.60;;
53411;SDS011;39307;52.870;13.660;2022-12-20T12:40:44;21.27;;;12.30;;
53411;SDS011;39307;52.870;13.660;2022-12-20T12:46:11;18.77;;;12.20;;
53411;SDS011;39307;52.870;13.660;2022-12-20T12:51:32;21.80;;;13.25;;
53411;SDS011;39307;52.870;13.660;2022-12-20T12:56:43;19.33;;;12.05;;
53411;SDS011;39307;52.870;13.660;2022-12-20T13:01:48;29.02;;;12.60;;
53411;SDS011;39307;52.870;13.660;2022-12-20T13:04:58;18.58;;;12.00;;
53411;SDS011;39307;52.870;13.660;2022-12-20T13:09:57;20.23;;;11.73;;
53411;SDS011;39307;52.870;13.660;2022-12-20T13:17:50;17.83;;;11.18;;
53411;SDS011;39307;52.870;13.660;2022-12-20T13:25:34;18.17;;;11.38;;
53411;SDS011;39307;52.870;13.660;2022-12-20T13:30:43;18.38;;;11.38;;
53411;SDS011;39307;52.870;13.660;2022-12-20T13:36:03;20.17;;;11.02;;
53411;SDS011;39307;52.870;13.660;2022-12-20T13:41:31;17.45;;;10.65;;
53411;SDS011;39307;52.870;13.660;2022-12-20T13:44:27;20.17;;;11.13;;
53411;SDS011;39307;52.870;13.660;2022-12-20T13:47:16;17.45;;;10.45;;
53411;SDS011;39307;52.870;13.660;2022-12-20T13:49:59;17.35;;;11.15;;
53411;SDS011;39307;52.870;13.660;2022-12-20T13:52:31;18.23;;;10.95;;
53411;SDS011;39307;52.870;13.660;2022-12-20T13:55:07;16.75;;;10.30;;
53411;SDS011;39307;52.870;13.660;2022-12-20T13:57:49;16.95;;;10.48;;
53411;SDS011;39307;52.870;13.660;2022-12-20T14:00:21;17.88;;;10.55;;
53411;SDS011;39307;52.870;13.660;2022-12-20T14:02:49;17.97;;;11.07;;
53411;SDS011;39307;52.870;13.660;2022-12-20T14:05:23;16.23;;;10.52;;
53411;SDS011;39307;52.870;13.660;2022-12-20T14:08:34;16.95;;;10.43;;
53411;SDS011;39307;52.870;13.660;2022-12-20T14:10:45;18.55;;;10.85;;
53411;SDS011;39307;52.870;13.660;2022-12-20T14:13:22;19.40;;;11.73;;
53411;SDS011;39307;52.870;13.660;2022-12-20T14:15:50;17.23;;;11.20;;
53411;SDS011;39307;52.870;13.660;2022-12-20T14:18:21;18.98;;;11.50;;
53411;SDS011;39307;52.870;13.660;2022-12-20T14:20:57;17.53;;;11.10;;
53411;SDS011;39307;52.870;13.660;2022-12-20T14:23:27;15.55;;;10.25;;
53411;SDS011;39307;52.870;13.660;2022-12-20T14:26:03;20.33;;;11.30;;
53411;SDS011;39307;52.870;13.660;2022-12-20T14:28:36;17.80;;;10.77;;
53411;SDS011;39307;52.870;13.660;2022-12-20T14:31:02;17.02;;;10.80;;
53411;SDS011;39307;52.870;13.660;2022-12-20T14:33:39;16.45;;;10.73;;
53411;SDS011;39307;52.870;13.660;2022-12-20T14:38:45;19.38;;;12.55;;
53411;SDS011;39307;52.870;13.660;2022-12-20T14:41:29;21.95;;;12.27;;
53411;SDS011;39307;52.870;13.660;2022-12-20T14:46:35;21.67;;;13.27;;
53411;SDS011;39307;52.870;13.660;2022-12-20T14:51:47;20.73;;;12.90;;
53411;SDS011;39307;52.870;13.660;2022-12-20T14:54:21;21.38;;;13.52;;
53411;SDS011;39307;52.870;13.660;2022-12-20T14:56:51;24.73;;;15.55;;
53411;SDS011;39307;52.870;13.660;2022-12-20T14:59:24;23.95;;;15.25;;
53411;SDS011;39307;52.870;13.660;2022-12-20T15:01:52;22.87;;;14.20;;
53411;SDS011;39307;52.870;13.660;2022-12-20T15:04:23;23.75;;;14.10;;
53411;SDS011;39307;52.870;13.660;2022-12-20T15:06:57;22.10;;;14.00;;
53411;SDS011;39307;52.870;13.660;2022-12-20T15:09:23;22.17;;;13.65;;
53411;SDS011;39307;52.870;13.660;2022-12-20T15:11:50;22.00;;;13.52;;
53411;SDS011;39307;52.870;13.660;2022-12-20T15:14:21;22.80;;;14.87;;
53411;SDS011;39307;52.870;13.660;2022-12-20T15:16:52;21.73;;;14.43;;
53411;SDS011;39307;52.870;13.660;2022-12-20T15:19:19;22.55;;;14.40;;
53411;SDS011;39307;52.870;13.660;2022-12-20T15:21:46;20.77;;;12.90;;
53411;SDS011;39307;52.870;13.660;2022-12-20T15:24:13;21.58;;;13.05;;
53411;SDS011;39307;52.870;13.660;2022-12-20T15:26:41;20.45;;;12.73;;
53411;SDS011;39307;52.870;13.660;2022-12-20T15:29:17;22.40;;;13.32;;
53411;SDS011;39307;52.870;13.660;2022-12-20T15:31:45;22.77;;;14.05;;
53411;SDS011;39307;52.870;13.660;2022-12-20T15:34:28;20.10;;;12.77;;
53411;SDS011;39307;52.870;13.660;2022-12-20T15:37:02;21.25;;;13.00;;
53411;SDS011;39307;52.870;13.660;2022-12-20T15:39:29;19.83;;;12.07;;
53411;SDS011;39307;52.870;13.660;2022-12-20T15:41:55;25.23;;;13.27;;
53411;SDS011;39307;52.870;13.660;2022-12-20T15:44:25;21.63;;;13.52;;
53411;SDS011;39307;52.870;13.660;2022-12-20T15:46:53;23.17;;;13.45;;
53411;SDS011;39307;52.870;13.660;2022-12-20T15:49:21;22.77;;;13.27;;
53411;SDS011;39307;52.870;13.660;2022-12-20T15:51:49;22.77;;;14.52;;
53411;SDS011;39307;52.870;13.660;2022-12-20T15:54:24;21.25;;;13.50;;
53411;SDS011;39307;52.870;13.660;2022-12-20T15:57:02;22.85;;;14.10;;
53411;SDS011;39307;52.870;13.660;2022-12-20T15:59:30;21.80;;;13.18;;
53411;SDS011;39307;52.870;13.660;2022-12-20T16:01:56;21.10;;;12.35;;
53411;SDS011;39307;52.870;13.660;2022-12-20T16:04:22;23.92;;;13.40;;
53411;SDS011;39307;52.870;13.660;2022-12-20T16:06:49;20.38;;;12.98;;
53411;SDS011;39307;52.870;13.660;2022-12-20T16:09:15;20.33;;;13.07;;